sensor_id;sensor_type;location;lat;lon;timestamp;P1;durP1;ratioP1;P2;durP2;ratioP2
49812;SDS011;35706;52.100;5.056;2023-07-09T00:00:35;2.83;;;1.08;;
49812;SDS011;35706;52.100;5.056;2023-07-09T00:01:36;4.45;;;1.00;;
49812;SDS011;35706;52.100;5.056;2023-07-09T00:02:37;3.83;;;1.10;;
49812;SDS011;35706;52.100;5.056;2023-07-09T00:03:37;5.63;;;1.23;;
49812;SDS011;35706;52.100;5.056;2023-07-09T00:04:37;3.95;;;0.90;;
49812;SDS011;35706;52.100;5.056;2023-07-09T00:05:38;2.90;;;1.08;;
49812;SDS011;35706;52.100;5.056;2023-07-09T00:06:38;4.07;;;1.10;;
49812;SDS011;35706;52.100;5.056;2023-07-09T00:07:40;4.75;;;1.08;;
49812;SDS011;35706;52.100;5.056;2023-07-09T00:08:42;4.70;;;1.23;;
49812;SDS011;35706;52.100;5.056;2023-07-09T00:09:44;6.90;;;1.35;;
49812;SDS011;35706;52.100;5.056;2023-07-09T00:10:45;2.08;;;0.90;;
49812;SDS011;35706;52.100;5.056;2023-07-09T00:11:45;6.35;;;1.27;;
49812;SDS011;35706;52.100;5.056;2023-07-09T00:12:46;6.18;;;1.15;;
49812;SDS011;35706;52.100;5.056;2023-07-09T00:13:47;25.48;;;1.80;;
49812;SDS011;35706;52.100;5.056;2023-07-09T00:14:48;3.92;;;0.90;;
49812;SDS011;35706;52.100;5.056;2023-07-09T00:15:48;4.68;;;1.75;;
49812;SDS011;35706;52.100;5.056;2023-07-09T00:16:49;3.15;;;1.20;;
49812;SDS011;35706;52.100;5.056;2023-07-09T00:17:50;3.08;;;1.13;;
49812;SDS011;35706;52.100;5.056;2023-07-09T00:18:50;3.45;;;1.08;;
49812;SDS011;35706;52.100;5.056;2023-07-09T00:19:51;4.00;;;1.08;;
49812;SDS011;35706;52.100;5.056;2023-07-09T00:20:51;4.53;;;1.27;;
49812;SDS011;35706;52.100;5.056;2023-07-09T00:21:52;7.25;;;1.45;;
49812;SDS011;35706;52.100;5.056;2023-07-09T00:22:55;3.13;;;1.15;;
49812;SDS011;35706;52.100;5.056;2023-07-09T00:23:55;8.23;;;1.30;;
49812;SDS011;35706;52.100;5.056;2023-07-09T00:24:56;3.75;;;1.17;;
49812;SDS011;35706;52.100;5.056;2023-07-09T00:25:59;2.50;;;1.20;;
49812;SDS011;35706;52.100;5.056;2023-07-09T00:27:04;2.63;;;1.35;;
49812;SDS011;35706;52.100;5.056;2023-07-09T00:28:11;3.83;;;1.10;;
49812;SDS011;35706;52.100;5.056;2023-07-09T00:29:13;3.63;;;1.60;;
49812;SDS011;35706;52.100;5.056;2023-07-09T00:30:15;3.53;;;1.70;;
49812;SDS011;35706;52.100;5.056;2023-07-09T00:31:18;6.38;;;1.30;;
49812;SDS011;35706;52.100;5.056;2023-07-09T00:32:19;7.88;;;1.60;;
49812;SDS011;35706;52.100;5.056;2023-07-09T00:33:24;4.28;;;1.30;;
49812;SDS011;35706;52.100;5.056;2023-07-09T00:34:31;3.42;;;1.45;;
49812;SDS011;35706;52.100;5.056;2023-07-09T00:35:31;6.35;;;1.50;;
49812;SDS011;35706;52.100;5.056;2023-07-09T00:36:32;6.68;;;1.77;;
49812;SDS011;35706;52.100;5.056;2023-07-09T00:37:32;4.93;;;1.70;;
49812;SDS011;35706;52.100;5.056;2023-07-09T00:38:32;3.47;;;1.10;;
49812;SDS011;35706;52.100;5.056;2023-07-09T00:39:38;6.40;;;1.45;;
49812;SDS011;35706;52.100;5.056;2023-07-09T00:40:45;6.00;;;1.58;;
49812;SDS011;35706;52.100;5.056;2023-07-09T00:41:59;4.05;;;1.33;;
49812;SDS011;35706;52.100;5.056;2023-07-09T00:42:59;5.15;;;1.45;;
49812;SDS011;35706;52.100;5.056;2023-07-09T00:44:13;4.70;;;1.63;;
49812;SDS011;35706;52.100;5.056;2023-07-09T00:45:25;4.88;;;1.40;;
49812;SDS011;35706;52.100;5.056;2023-07-09T00:47:42;4.70;;;1.73;;
49812;SDS011;35706;52.100;5.056;2023-07-09T00:48:45;4.57;;;1.35;;
49812;SDS011;35706;52.100;5.056;2023-07-09T00:49:59;8.73;;;1.67;;
49812;SDS011;35706;52.100;5.056;2023-07-09T00:51:04;6.00;;;1.80;;
49812;SDS011;35706;52.100;5.056;2023-07-09T00:52:22;4.55;;;1.17;;
49812;SDS011;35706;52.100;5.056;2023-07-09T00:53:29;6.53;;;1.52;;
49812;SDS011;35706;52.100;5.056;2023-07-09T00:54:37;5.78;;;1.40;;
49812;SDS011;35706;52.100;5.056;2023-07-09T00:55:41;4.40;;;1.75;;
49812;SDS011;35706;52.100;5.056;2023-07-09T00:56:45;2.40;;;1.40;;
49812;SDS011;35706;52.100;5.056;2023-07-09T00:57:51;7.03;;;1.60;;
49812;SDS011;35706;52.100;5.056;2023-07-09T00:58:57;3.55;;;1.60;;
49812;SDS011;35706;52.100;5.056;2023-07-09T01:00:05;4.25;;;1.42;;
49812;SDS011;35706;52.100;5.056;2023-07-09T01:01:16;4.95;;;2.05;;
49812;SDS011;35706;52.100;5.056;2023-07-09T01:02:18;5.65;;;1.77;;
49812;SDS011;35706;52.100;5.056;2023-07-09T01:03:40;3.35;;;1.42;;
49812;SDS011;35706;52.100;5.056;2023-07-09T01:04:44;7.07;;;1.58;;
49812;SDS011;35706;52.100;5.056;2023-07-09T01:05:48;4.43;;;2.13;;
49812;SDS011;35706;52.100;5.056;2023-07-09T01:06:52;4.18;;;1.80;;
49812;SDS011;35706;52.100;5.056;2023-07-09T01:07:54;4.15;;;1.63;;
49812;SDS011;35706;52.100;5.056;2023-07-09T01:08:58;4.63;;;1.23;;
49812;SDS011;35706;52.100;5.056;2023-07-09T01:10:01;7.82;;;1.88;;
49812;SDS011;35706;52.100;5.056;2023-07-09T01:11:01;4.97;;;1.85;;
49812;SDS011;35706;52.100;5.056;2023-07-09T01:12:03;3.60;;;1.63;;
49812;SDS011;35706;52.100;5.056;2023-07-09T01:13:07;7.03;;;2.40;;
49812;SDS011;35706;52.100;5.056;2023-07-09T01:14:09;2.60;;;1.42;;
49812;SDS011;35706;52.100;5.056;2023-07-09T01:15:13;6.50;;;1.70;;
49812;SDS011;35706;52.100;5.056;2023-07-09T01:16:15;4.10;;;1.50;;
49812;SDS011;35706;52.100;5.056;2023-07-09T01:17:15;5.18;;;2.10;;
49812;SDS011;35706;52.100;5.056;2023-07-09T01:18:15;3.72;;;1.75;;
49812;SDS011;35706;52.100;5.056;2023-07-09T01:19:21;4.72;;;1.42;;
49812;SDS011;35706;52.100;5.056;2023-07-09T01:20:24;3.85;;;1.90;;
49812;SDS011;35706;52.100;5.056;2023-07-09T01:21:26;6.30;;;2.38;;
49812;SDS011;35706;52.100;5.056;2023-07-09T01:22:27;11.73;;;2.25;;
49812;SDS011;35706;52.100;5.056;2023-07-09T01:23:29;6.53;;;1.95;;
49812;SDS011;35706;52.100;5.056;2023-07-09T01:25:52;6.38;;;2.22;;
49812;SDS011;35706;52.100;5.056;2023-07-09T01:26:54;4.45;;;1.55;;
49812;SDS011;35706;52.100;5.056;2023-07-09T01:27:55;4.07;;;1.75;;
49812;SDS011;35706;52.100;5.056;2023-07-09T01:28:55;5.00;;;1.88;;
49812;SDS011;35706;52.100;5.056;2023-07-09T01:29:57;3.35;;;1.85;;
49812;SDS011;35706;52.100;5.056;2023-07-09T01:30:57;8.75;;;2.30;;
49812;SDS011;35706;52.100;5.056;2023-07-09T01:31:58;6.65;;;1.55;;
49812;SDS011;35706;52.100;5.056;2023-07-09T01:32:59;10.05;;;2.10;;
49812;SDS011;35706;52.100;5.056;2023-07-09T01:34:01;8.77;;;2.40;;
49812;SDS011;35706;52.100;5.056;2023-07-09T01:35:02;4.50;;;1.92;;
49812;SDS011;35706;52.100;5.056;2023-07-09T01:36:06;3.78;;;1.75;;
49812;SDS011;35706;52.100;5.056;2023-07-09T01:37:18;7.97;;;1.63;;
49812;SDS011;35706;52.100;5.056;2023-07-09T01:38:21;6.18;;;2.38;;
49812;SDS011;35706;52.100;5.056;2023-07-09T01:39:22;4.85;;;1.80;;
49812;SDS011;35706;52.100;5.056;2023-07-09T01:40:23;4.55;;;2.25;;
49812;SDS011;35706;52.100;5.056;2023-07-09T01:41:25;5.03;;;1.88;;
49812;SDS011;35706;52.100;5.056;2023-07-09T01:42:25;6.80;;;2.15;;
49812;SDS011;35706;52.100;5.056;2023-07-09T01:43:28;3.53;;;1.55;;
49812;SDS011;35706;52.100;5.056;2023-07-09T01:44:29;5.32;;;1.80;;
49812;SDS011;35706;52.100;5.056;2023-07-09T01:45:29;7.88;;;1.80;;
49812;SDS011;35706;52.100;5.056;2023-07-09T01:46:30;5.80;;;2.85;;
49812;SDS011;35706;52.100;5.056;2023-07-09T01:47:30;4.85;;;2.13;;
49812;SDS011;35706;52.100;5.056;2023-07-09T01:48:30;12.73;;;2.40;;
49812;SDS011;35706;52.100;5.056;2023-07-09T01:49:33;6.55;;;2.67;;
49812;SDS011;35706;52.100;5.056;2023-07-09T01:50:33;7.97;;;2.42;;
49812;SDS011;35706;52.100;5.056;2023-07-09T01:51:33;5.18;;;1.88;;
49812;SDS011;35706;52.100;5.056;2023-07-09T01:52:37;6.22;;;2.17;;
49812;SDS011;35706;52.100;5.056;2023-07-09T01:53:41;3.72;;;2.15;;
49812;SDS011;35706;52.100;5.056;2023-07-09T01:54:44;4.65;;;2.17;;
49812;SDS011;35706;52.100;5.056;2023-07-09T01:55:49;4.65;;;1.95;;
49812;SDS011;35706;52.100;5.056;2023-07-09T01:56:53;5.15;;;2.40;;
49812;SDS011;35706;52.100;5.056;2023-07-09T01:58:01;2.53;;;1.80;;
49812;SDS011;35706;52.100;5.056;2023-07-09T01:59:06;2.78;;;1.48;;
49812;SDS011;35706;52.100;5.056;2023-07-09T02:00:07;12.68;;;2.50;;
49812;SDS011;35706;52.100;5.056;2023-07-09T02:01:13;6.15;;;1.55;;
49812;SDS011;35706;52.100;5.056;2023-07-09T02:02:15;3.97;;;2.30;;
49812;SDS011;35706;52.100;5.056;2023-07-09T02:03:18;3.05;;;2.65;;
49812;SDS011;35706;52.100;5.056;2023-07-09T02:04:19;4.45;;;1.77;;
49812;SDS011;35706;52.100;5.056;2023-07-09T02:05:19;4.03;;;2.25;;
49812;SDS011;35706;52.100;5.056;2023-07-09T02:06:21;3.72;;;2.05;;
49812;SDS011;35706;52.100;5.056;2023-07-09T02:07:24;5.38;;;2.47;;
49812;SDS011;35706;52.100;5.056;2023-07-09T02:08:25;3.55;;;2.10;;
49812;SDS011;35706;52.100;5.056;2023-07-09T02:09:25;4.47;;;2.25;;
49812;SDS011;35706;52.100;5.056;2023-07-09T02:10:26;7.78;;;2.40;;
49812;SDS011;35706;52.100;5.056;2023-07-09T02:11:26;8.00;;;2.20;;
49812;SDS011;35706;52.100;5.056;2023-07-09T02:12:26;5.13;;;2.70;;
49812;SDS011;35706;52.100;5.056;2023-07-09T02:13:27;5.55;;;2.47;;
49812;SDS011;35706;52.100;5.056;2023-07-09T02:14:27;5.25;;;2.00;;
49812;SDS011;35706;52.100;5.056;2023-07-09T02:15:28;5.15;;;2.15;;
49812;SDS011;35706;52.100;5.056;2023-07-09T02:16:30;5.22;;;2.47;;
49812;SDS011;35706;52.100;5.056;2023-07-09T02:17:30;4.05;;;2.20;;
49812;SDS011;35706;52.100;5.056;2023-07-09T02:18:31;4.70;;;2.50;;
49812;SDS011;35706;52.100;5.056;2023-07-09T02:19:31;6.35;;;2.13;;
49812;SDS011;35706;52.100;5.056;2023-07-09T02:20:32;7.45;;;2.70;;
49812;SDS011;35706;52.100;5.056;2023-07-09T02:21:32;4.97;;;2.17;;
49812;SDS011;35706;52.100;5.056;2023-07-09T02:22:33;6.93;;;2.35;;
49812;SDS011;35706;52.100;5.056;2023-07-09T02:23:34;4.47;;;2.30;;
49812;SDS011;35706;52.100;5.056;2023-07-09T02:24:34;7.07;;;2.00;;
49812;SDS011;35706;52.100;5.056;2023-07-09T02:25:34;9.50;;;2.50;;
49812;SDS011;35706;52.100;5.056;2023-07-09T02:26:35;6.18;;;1.92;;
49812;SDS011;35706;52.100;5.056;2023-07-09T02:27:35;7.00;;;2.58;;
49812;SDS011;35706;52.100;5.056;2023-07-09T02:28:36;7.18;;;1.95;;
49812;SDS011;35706;52.100;5.056;2023-07-09T02:29:37;6.53;;;1.98;;
49812;SDS011;35706;52.100;5.056;2023-07-09T02:30:38;5.43;;;2.15;;
49812;SDS011;35706;52.100;5.056;2023-07-09T02:31:39;7.50;;;2.08;;
49812;SDS011;35706;52.100;5.056;2023-07-09T02:32:40;4.63;;;2.00;;
49812;SDS011;35706;52.100;5.056;2023-07-09T02:33:41;3.50;;;2.00;;
49812;SDS011;35706;52.100;5.056;2023-07-09T02:34:41;5.35;;;2.00;;
49812;SDS011;35706;52.100;5.056;2023-07-09T02:35:42;6.55;;;2.45;;
49812;SDS011;35706;52.100;5.056;2023-07-09T02:36:42;4.88;;;2.38;;
49812;SDS011;35706;52.100;5.056;2023-07-09T02:37:43;3.45;;;1.75;;
49812;SDS011;35706;52.100;5.056;2023-07-09T02:38:43;5.50;;;2.60;;
49812;SDS011;35706;52.100;5.056;2023-07-09T02:39:43;3.17;;;1.67;;
49812;SDS011;35706;52.100;5.056;2023-07-09T02:40:44;4.82;;;1.38;;
49812;SDS011;35706;52.100;5.056;2023-07-09T02:41:45;7.78;;;1.67;;
49812;SDS011;35706;52.100;5.056;2023-07-09T02:42:46;5.40;;;1.85;;
49812;SDS011;35706;52.100;5.056;2023-07-09T02:43:46;5.50;;;1.85;;
49812;SDS011;35706;52.100;5.056;2023-07-09T02:44:47;4.72;;;1.60;;
49812;SDS011;35706;52.100;5.056;2023-07-09T02:45:47;5.93;;;2.30;;
49812;SDS011;35706;52.100;5.056;2023-07-09T02:46:48;7.68;;;2.35;;
49812;SDS011;35706;52.100;5.056;2023-07-09T02:47:48;3.70;;;2.03;;
49812;SDS011;35706;52.100;5.056;2023-07-09T02:48:49;3.15;;;2.03;;
49812;SDS011;35706;52.100;5.056;2023-07-09T02:49:49;5.32;;;2.35;;
49812;SDS011;35706;52.100;5.056;2023-07-09T02:50:49;3.40;;;2.40;;
49812;SDS011;35706;52.100;5.056;2023-07-09T02:51:50;5.80;;;2.58;;
49812;SDS011;35706;52.100;5.056;2023-07-09T02:52:50;5.50;;;2.67;;
49812;SDS011;35706;52.100;5.056;2023-07-09T02:53:50;5.47;;;2.45;;
49812;SDS011;35706;52.100;5.056;2023-07-09T02:54:51;5.03;;;2.53;;
49812;SDS011;35706;52.100;5.056;2023-07-09T02:55:51;7.93;;;2.47;;
49812;SDS011;35706;52.100;5.056;2023-07-09T02:56:51;4.70;;;2.75;;
49812;SDS011;35706;52.100;5.056;2023-07-09T02:57:52;6.32;;;2.70;;
49812;SDS011;35706;52.100;5.056;2023-07-09T02:58:52;7.95;;;2.90;;
49812;SDS011;35706;52.100;5.056;2023-07-09T02:59:53;5.82;;;2.40;;
49812;SDS011;35706;52.100;5.056;2023-07-09T03:00:59;7.70;;;2.75;;
49812;SDS011;35706;52.100;5.056;2023-07-09T03:02:00;6.75;;;2.95;;
49812;SDS011;35706;52.100;5.056;2023-07-09T03:03:01;6.38;;;2.50;;
49812;SDS011;35706;52.100;5.056;2023-07-09T03:04:01;4.85;;;2.95;;
49812;SDS011;35706;52.100;5.056;2023-07-09T03:05:03;5.72;;;2.38;;
49812;SDS011;35706;52.100;5.056;2023-07-09T03:06:03;5.25;;;2.40;;
49812;SDS011;35706;52.100;5.056;2023-07-09T03:07:05;3.70;;;2.35;;
49812;SDS011;35706;52.100;5.056;2023-07-09T03:08:05;6.07;;;2.97;;
49812;SDS011;35706;52.100;5.056;2023-07-09T03:09:09;4.57;;;3.05;;
49812;SDS011;35706;52.100;5.056;2023-07-09T03:10:09;7.60;;;3.25;;
49812;SDS011;35706;52.100;5.056;2023-07-09T03:11:10;4.13;;;3.13;;
49812;SDS011;35706;52.100;5.056;2023-07-09T03:12:12;5.80;;;2.97;;
49812;SDS011;35706;52.100;5.056;2023-07-09T03:13:12;6.93;;;3.20;;
49812;SDS011;35706;52.100;5.056;2023-07-09T03:14:12;5.03;;;3.35;;
49812;SDS011;35706;52.100;5.056;2023-07-09T03:15:13;9.50;;;3.30;;
49812;SDS011;35706;52.100;5.056;2023-07-09T03:16:14;7.57;;;2.97;;
49812;SDS011;35706;52.100;5.056;2023-07-09T03:17:15;11.88;;;3.55;;
49812;SDS011;35706;52.100;5.056;2023-07-09T03:18:24;6.95;;;3.15;;
49812;SDS011;35706;52.100;5.056;2023-07-09T03:19:27;7.15;;;3.55;;
49812;SDS011;35706;52.100;5.056;2023-07-09T03:20:28;7.75;;;4.10;;
49812;SDS011;35706;52.100;5.056;2023-07-09T03:21:29;8.65;;;3.17;;
49812;SDS011;35706;52.100;5.056;2023-07-09T03:22:29;7.25;;;4.13;;
49812;SDS011;35706;52.100;5.056;2023-07-09T03:23:29;7.15;;;4.43;;
49812;SDS011;35706;52.100;5.056;2023-07-09T03:24:30;13.63;;;4.47;;
49812;SDS011;35706;52.100;5.056;2023-07-09T03:25:31;7.93;;;4.25;;
49812;SDS011;35706;52.100;5.056;2023-07-09T03:26:31;9.18;;;4.32;;
49812;SDS011;35706;52.100;5.056;2023-07-09T03:27:31;8.52;;;4.85;;
49812;SDS011;35706;52.100;5.056;2023-07-09T03:28:32;12.90;;;4.55;;
49812;SDS011;35706;52.100;5.056;2023-07-09T03:29:33;9.93;;;4.30;;
49812;SDS011;35706;52.100;5.056;2023-07-09T03:30:33;9.43;;;4.90;;
49812;SDS011;35706;52.100;5.056;2023-07-09T03:31:33;7.47;;;4.43;;
49812;SDS011;35706;52.100;5.056;2023-07-09T03:32:34;13.45;;;5.40;;
49812;SDS011;35706;52.100;5.056;2023-07-09T03:33:35;8.20;;;4.78;;
49812;SDS011;35706;52.100;5.056;2023-07-09T03:34:35;9.05;;;5.00;;
49812;SDS011;35706;52.100;5.056;2023-07-09T03:35:36;7.88;;;4.78;;
49812;SDS011;35706;52.100;5.056;2023-07-09T03:36:38;10.75;;;4.78;;
49812;SDS011;35706;52.100;5.056;2023-07-09T03:37:38;11.32;;;5.93;;
49812;SDS011;35706;52.100;5.056;2023-07-09T03:38:39;8.23;;;5.35;;
49812;SDS011;35706;52.100;5.056;2023-07-09T03:39:39;9.60;;;5.43;;
49812;SDS011;35706;52.100;5.056;2023-07-09T03:40:39;8.18;;;4.97;;
49812;SDS011;35706;52.100;5.056;2023-07-09T03:41:40;12.95;;;4.95;;
49812;SDS011;35706;52.100;5.056;2023-07-09T03:42:40;7.10;;;4.70;;
49812;SDS011;35706;52.100;5.056;2023-07-09T03:43:40;8.07;;;5.32;;
49812;SDS011;35706;52.100;5.056;2023-07-09T03:44:40;6.78;;;4.43;;
49812;SDS011;35706;52.100;5.056;2023-07-09T03:45:41;13.57;;;5.45;;
49812;SDS011;35706;52.100;5.056;2023-07-09T03:46:44;7.20;;;4.78;;
49812;SDS011;35706;52.100;5.056;2023-07-09T03:47:44;8.45;;;4.88;;
49812;SDS011;35706;52.100;5.056;2023-07-09T03:48:45;6.75;;;4.50;;
49812;SDS011;35706;52.100;5.056;2023-07-09T03:49:46;8.75;;;4.78;;
49812;SDS011;35706;52.100;5.056;2023-07-09T03:50:46;7.28;;;4.90;;
49812;SDS011;35706;52.100;5.056;2023-07-09T03:51:48;7.25;;;4.78;;
49812;SDS011;35706;52.100;5.056;2023-07-09T03:52:48;6.47;;;4.63;;
49812;SDS011;35706;52.100;5.056;2023-07-09T03:53:48;8.80;;;4.50;;
49812;SDS011;35706;52.100;5.056;2023-07-09T03:54:49;7.70;;;4.45;;
49812;SDS011;35706;52.100;5.056;2023-07-09T03:55:53;12.50;;;5.15;;
49812;SDS011;35706;52.100;5.056;2023-07-09T03:56:59;7.93;;;5.00;;
49812;SDS011;35706;52.100;5.056;2023-07-09T03:58:00;6.55;;;5.18;;
49812;SDS011;35706;52.100;5.056;2023-07-09T03:59:02;7.50;;;4.18;;
49812;SDS011;35706;52.100;5.056;2023-07-09T04:00:06;11.18;;;4.57;;
49812;SDS011;35706;52.100;5.056;2023-07-09T04:01:12;9.13;;;5.00;;
49812;SDS011;35706;52.100;5.056;2023-07-09T04:02:13;10.80;;;4.63;;
49812;SDS011;35706;52.100;5.056;2023-07-09T04:03:13;6.68;;;4.07;;
49812;SDS011;35706;52.100;5.056;2023-07-09T04:04:21;7.97;;;4.50;;
49812;SDS011;35706;52.100;5.056;2023-07-09T04:05:22;7.45;;;4.75;;
49812;SDS011;35706;52.100;5.056;2023-07-09T04:06:24;10.18;;;5.18;;
49812;SDS011;35706;52.100;5.056;2023-07-09T04:07:24;9.25;;;5.07;;
49812;SDS011;35706;52.100;5.056;2023-07-09T04:08:28;6.90;;;5.05;;
49812;SDS011;35706;52.100;5.056;2023-07-09T04:09:28;8.38;;;4.70;;
49812;SDS011;35706;52.100;5.056;2023-07-09T04:10:29;8.10;;;4.80;;
49812;SDS011;35706;52.100;5.056;2023-07-09T04:11:30;6.97;;;4.78;;
49812;SDS011;35706;52.100;5.056;2023-07-09T04:12:30;8.10;;;4.43;;
49812;SDS011;35706;52.100;5.056;2023-07-09T04:13:31;8.23;;;4.57;;
49812;SDS011;35706;52.100;5.056;2023-07-09T04:14:31;7.38;;;5.05;;
49812;SDS011;35706;52.100;5.056;2023-07-09T04:15:32;8.45;;;4.63;;
49812;SDS011;35706;52.100;5.056;2023-07-09T04:16:33;12.05;;;5.05;;
49812;SDS011;35706;52.100;5.056;2023-07-09T04:17:36;10.35;;;4.60;;
49812;SDS011;35706;52.100;5.056;2023-07-09T04:18:37;11.90;;;5.20;;
49812;SDS011;35706;52.100;5.056;2023-07-09T04:19:37;8.75;;;5.38;;
49812;SDS011;35706;52.100;5.056;2023-07-09T04:20:38;5.80;;;5.00;;
49812;SDS011;35706;52.100;5.056;2023-07-09T04:21:38;6.15;;;5.32;;
49812;SDS011;35706;52.100;5.056;2023-07-09T04:22:39;8.13;;;4.90;;
49812;SDS011;35706;52.100;5.056;2023-07-09T04:23:42;8.55;;;5.60;;
49812;SDS011;35706;52.100;5.056;2023-07-09T04:24:43;11.20;;;4.90;;
49812;SDS011;35706;52.100;5.056;2023-07-09T04:25:44;10.25;;;6.15;;
49812;SDS011;35706;52.100;5.056;2023-07-09T04:26:45;8.57;;;5.63;;
49812;SDS011;35706;52.100;5.056;2023-07-09T04:27:46;9.25;;;6.45;;
49812;SDS011;35706;52.100;5.056;2023-07-09T04:28:46;12.60;;;5.88;;
49812;SDS011;35706;52.100;5.056;2023-07-09T04:29:46;12.32;;;6.38;;
49812;SDS011;35706;52.100;5.056;2023-07-09T04:30:48;11.50;;;6.35;;
49812;SDS011;35706;52.100;5.056;2023-07-09T04:31:50;8.75;;;5.55;;
49812;SDS011;35706;52.100;5.056;2023-07-09T04:32:50;8.23;;;5.50;;
49812;SDS011;35706;52.100;5.056;2023-07-09T04:33:51;9.00;;;5.47;;
49812;SDS011;35706;52.100;5.056;2023-07-09T04:34:52;11.25;;;5.28;;
49812;SDS011;35706;52.100;5.056;2023-07-09T04:35:53;8.98;;;5.50;;
49812;SDS011;35706;52.100;5.056;2023-07-09T04:36:54;13.23;;;5.13;;
49812;SDS011;35706;52.100;5.056;2023-07-09T04:37:54;9.15;;;5.22;;
49812;SDS011;35706;52.100;5.056;2023-07-09T04:38:55;10.20;;;4.88;;
49812;SDS011;35706;52.100;5.056;2023-07-09T04:39:55;9.15;;;5.10;;
49812;SDS011;35706;52.100;5.056;2023-07-09T04:40:55;8.35;;;5.43;;
49812;SDS011;35706;52.100;5.056;2023-07-09T04:41:56;7.38;;;5.10;;
49812;SDS011;35706;52.100;5.056;2023-07-09T04:42:56;10.18;;;5.40;;
49812;SDS011;35706;52.100;5.056;2023-07-09T04:43:56;9.93;;;5.15;;
49812;SDS011;35706;52.100;5.056;2023-07-09T04:44:56;10.57;;;4.75;;
49812;SDS011;35706;52.100;5.056;2023-07-09T04:45:57;8.82;;;4.85;;
49812;SDS011;35706;52.100;5.056;2023-07-09T04:46:57;8.40;;;4.53;;
49812;SDS011;35706;52.100;5.056;2023-07-09T04:47:58;10.68;;;5.82;;
49812;SDS011;35706;52.100;5.056;2023-07-09T04:48:58;10.05;;;5.18;;
49812;SDS011;35706;52.100;5.056;2023-07-09T04:50:00;10.68;;;5.45;;
49812;SDS011;35706;52.100;5.056;2023-07-09T04:51:00;8.00;;;4.78;;
49812;SDS011;35706;52.100;5.056;2023-07-09T04:52:01;8.23;;;5.40;;
49812;SDS011;35706;52.100;5.056;2023-07-09T04:53:01;11.15;;;5.25;;
49812;SDS011;35706;52.100;5.056;2023-07-09T04:54:02;10.52;;;5.40;;
49812;SDS011;35706;52.100;5.056;2023-07-09T04:55:04;11.32;;;5.63;;
49812;SDS011;35706;52.100;5.056;2023-07-09T04:56:05;8.70;;;5.43;;
49812;SDS011;35706;52.100;5.056;2023-07-09T04:57:06;10.98;;;5.00;;
49812;SDS011;35706;52.100;5.056;2023-07-09T04:58:06;9.43;;;5.22;;
49812;SDS011;35706;52.100;5.056;2023-07-09T04:59:07;8.23;;;5.55;;
49812;SDS011;35706;52.100;5.056;2023-07-09T05:00:07;8.75;;;5.85;;
49812;SDS011;35706;52.100;5.056;2023-07-09T05:01:08;8.20;;;5.63;;
49812;SDS011;35706;52.100;5.056;2023-07-09T05:02:11;8.65;;;5.80;;
49812;SDS011;35706;52.100;5.056;2023-07-09T05:03:11;8.00;;;5.68;;
49812;SDS011;35706;52.100;5.056;2023-07-09T05:04:11;10.43;;;5.43;;
49812;SDS011;35706;52.100;5.056;2023-07-09T05:05:12;9.70;;;5.40;;
49812;SDS011;35706;52.100;5.056;2023-07-09T05:06:13;9.77;;;5.85;;
49812;SDS011;35706;52.100;5.056;2023-07-09T05:07:13;7.78;;;5.38;;
49812;SDS011;35706;52.100;5.056;2023-07-09T05:08:14;11.38;;;5.85;;
49812;SDS011;35706;52.100;5.056;2023-07-09T05:09:14;6.78;;;5.50;;
49812;SDS011;35706;52.100;5.056;2023-07-09T05:10:15;7.18;;;5.47;;
49812;SDS011;35706;52.100;5.056;2023-07-09T05:11:15;7.00;;;5.35;;
49812;SDS011;35706;52.100;5.056;2023-07-09T05:12:15;9.25;;;5.00;;
49812;SDS011;35706;52.100;5.056;2023-07-09T05:13:16;13.27;;;6.20;;
49812;SDS011;35706;52.100;5.056;2023-07-09T05:14:17;7.95;;;5.07;;
49812;SDS011;35706;52.100;5.056;2023-07-09T05:15:18;9.18;;;5.60;;
49812;SDS011;35706;52.100;5.056;2023-07-09T05:16:20;10.32;;;5.72;;
49812;SDS011;35706;52.100;5.056;2023-07-09T05:17:20;8.55;;;5.45;;
49812;SDS011;35706;52.100;5.056;2023-07-09T05:18:22;11.63;;;5.80;;
49812;SDS011;35706;52.100;5.056;2023-07-09T05:19:22;6.85;;;5.57;;
49812;SDS011;35706;52.100;5.056;2023-07-09T05:20:23;13.35;;;6.20;;
49812;SDS011;35706;52.100;5.056;2023-07-09T05:21:24;7.90;;;5.40;;
49812;SDS011;35706;52.100;5.056;2023-07-09T05:22:25;9.93;;;5.63;;
49812;SDS011;35706;52.100;5.056;2023-07-09T05:23:25;8.38;;;5.57;;
49812;SDS011;35706;52.100;5.056;2023-07-09T05:24:26;8.88;;;5.90;;
49812;SDS011;35706;52.100;5.056;2023-07-09T05:25:26;10.80;;;7.03;;
49812;SDS011;35706;52.100;5.056;2023-07-09T05:26:26;9.95;;;6.15;;
49812;SDS011;35706;52.100;5.056;2023-07-09T05:27:27;10.57;;;6.28;;
49812;SDS011;35706;52.100;5.056;2023-07-09T05:28:27;11.18;;;5.55;;
49812;SDS011;35706;52.100;5.056;2023-07-09T05:29:28;10.27;;;6.25;;
49812;SDS011;35706;52.100;5.056;2023-07-09T05:30:29;10.77;;;4.88;;
49812;SDS011;35706;52.100;5.056;2023-07-09T05:31:29;10.32;;;6.57;;
49812;SDS011;35706;52.100;5.056;2023-07-09T05:32:30;11.05;;;6.03;;
49812;SDS011;35706;52.100;5.056;2023-07-09T05:33:31;15.85;;;7.90;;
49812;SDS011;35706;52.100;5.056;2023-07-09T05:34:31;13.35;;;7.15;;
49812;SDS011;35706;52.100;5.056;2023-07-09T05:35:31;15.02;;;7.00;;
49812;SDS011;35706;52.100;5.056;2023-07-09T05:36:32;9.18;;;6.78;;
49812;SDS011;35706;52.100;5.056;2023-07-09T05:37:32;14.20;;;6.03;;
49812;SDS011;35706;52.100;5.056;2023-07-09T05:38:33;11.27;;;6.00;;
49812;SDS011;35706;52.100;5.056;2023-07-09T05:39:33;6.60;;;5.47;;
49812;SDS011;35706;52.100;5.056;2023-07-09T05:40:34;9.90;;;6.35;;
49812;SDS011;35706;52.100;5.056;2023-07-09T05:41:34;7.30;;;5.43;;
49812;SDS011;35706;52.100;5.056;2023-07-09T05:42:35;8.65;;;6.53;;
49812;SDS011;35706;52.100;5.056;2023-07-09T05:43:35;11.52;;;7.35;;
49812;SDS011;35706;52.100;5.056;2023-07-09T05:44:35;7.68;;;6.05;;
49812;SDS011;35706;52.100;5.056;2023-07-09T05:45:36;10.13;;;6.40;;
49812;SDS011;35706;52.100;5.056;2023-07-09T05:46:38;8.60;;;6.22;;
49812;SDS011;35706;52.100;5.056;2023-07-09T05:47:39;9.10;;;6.25;;
49812;SDS011;35706;52.100;5.056;2023-07-09T05:48:39;10.95;;;6.35;;
49812;SDS011;35706;52.100;5.056;2023-07-09T05:49:39;8.82;;;6.30;;
49812;SDS011;35706;52.100;5.056;2023-07-09T05:50:40;8.18;;;6.22;;
49812;SDS011;35706;52.100;5.056;2023-07-09T05:51:40;8.27;;;6.28;;
49812;SDS011;35706;52.100;5.056;2023-07-09T05:52:40;14.45;;;5.30;;
49812;SDS011;35706;52.100;5.056;2023-07-09T05:53:41;8.38;;;5.43;;
49812;SDS011;35706;52.100;5.056;2023-07-09T05:54:41;13.60;;;6.18;;
49812;SDS011;35706;52.100;5.056;2023-07-09T05:55:42;12.35;;;5.88;;
49812;SDS011;35706;52.100;5.056;2023-07-09T05:56:42;11.48;;;6.05;;
49812;SDS011;35706;52.100;5.056;2023-07-09T05:57:42;8.38;;;5.25;;
49812;SDS011;35706;52.100;5.056;2023-07-09T05:58:43;12.23;;;6.57;;
49812;SDS011;35706;52.100;5.056;2023-07-09T05:59:43;11.32;;;6.82;;
49812;SDS011;35706;52.100;5.056;2023-07-09T06:00:43;8.98;;;5.22;;
49812;SDS011;35706;52.100;5.056;2023-07-09T06:01:44;9.15;;;4.45;;
49812;SDS011;35706;52.100;5.056;2023-07-09T06:02:44;10.85;;;4.35;;
49812;SDS011;35706;52.100;5.056;2023-07-09T06:03:45;7.70;;;3.85;;
49812;SDS011;35706;52.100;5.056;2023-07-09T06:04:46;6.35;;;4.68;;
49812;SDS011;35706;52.100;5.056;2023-07-09T06:05:49;8.23;;;5.40;;
49812;SDS011;35706;52.100;5.056;2023-07-09T06:06:50;9.27;;;4.72;;
49812;SDS011;35706;52.100;5.056;2023-07-09T06:07:50;12.63;;;6.07;;
49812;SDS011;35706;52.100;5.056;2023-07-09T06:08:50;7.38;;;4.72;;
49812;SDS011;35706;52.100;5.056;2023-07-09T06:09:51;6.45;;;5.55;;
49812;SDS011;35706;52.100;5.056;2023-07-09T06:10:53;9.52;;;5.20;;
49812;SDS011;35706;52.100;5.056;2023-07-09T06:12:03;10.00;;;4.20;;
49812;SDS011;35706;52.100;5.056;2023-07-09T06:13:03;8.82;;;4.15;;